LGRX/GPA METAR and TAF weather

Enter ICAO airport designator
Station Type Date Time Source
LGRX METAR 2020/04/01 23:50 UTC NOAA

LGRX 012350Z VRB03KT 9999 FEW020 10/05 Q1011


Station Type Date Time Source
LGRX Decoded METAR 2020/04/01 23:50 UTC NOAA

Araxos Airport , Greece (LGRX) 38-09N 021-25E 12M
Apr 01, 2020 - 07:50 PM EDT / 2020.04.01 2350 UTC
Wind: Variable at 3 MPH (3 KT):0
Visibility: greater than 7 mile(s):0
Sky conditions: mostly clear
Temperature: 50 F (10 C)
Dew Point: 41 F (5 C)
Relative Humidity: 71%
Pressure (altimeter): 29.85 in. Hg (1011 hPa)
ob: LGRX 012350Z VRB03KT 9999 FEW020 10/05 Q1011
cycle: 0

Station Type Date Time Source
LGRX TAF 2020/03/18 09:39 UTC NOAA

TAF LGRX 180800Z 1809/1821 33006KT 9999 FEW030
BECMG 1816/1818 07010KT

Example: see airport list